Bookmark and Share
Track history (hours):
 

Hatsu Envoy

Last reported at 2014-Apr-13 00:16 UTC. Time now 2014-Apr-16 05:25 UTC.
Position N 01°21' E 103°33'.

Type: Ship (hazmat cat D). MMSI: 235414000.

NotesDate/timePositionNaut miles runAvg speedWind from/ knotsBaromVisibWave heightAir tempDewpointWater temp
2014-Apr-13 00:16N 01°21' E 103°33'1 0.2
2014-Apr-12 20:30N 01°22' E 103°33'0 0.0
2014-Apr-12 18:23N 01°22' E 103°33'0 0.0
2014-Apr-12 13:31N 01°22' E 103°33'0 0.0
2014-Apr-12 12:07N 01°22' E 103°33'0 0.0
2014-Apr-12 11:32N 01°22' E 103°33'0 0.1
2014-Apr-12 10:25N 01°22' E 103°33'3 3.6
2014-Apr-12 09:33N 01°19' E 103°33'4 4.0
2014-Apr-12 08:33N 01°15' E 103°33'0 0.1
2014-Apr-12 07:21N 01°15' E 103°33'0 0.1
2014-Apr-12 06:30N 01°15' E 103°33'1 1.3
2014-Apr-12 05:33N 01°14' E 103°32'1 1.0
2014-Apr-12 04:33N 01°14' E 103°33'9 8.8
2014-Apr-12 03:33N 01°10' E 103°41'1110.5
2014-Apr-12 02:33N 01°12' E 103°51'  
2014-Apr-07 17:32N 22°34' E 114°16'0 0.0
2014-Apr-07 16:32N 22°34' E 114°16'0 0.0
2014-Apr-07 15:33N 22°34' E 114°16'0 0.0
2014-Apr-07 14:32N 22°34' E 114°16'0 0.0
2014-Apr-07 13:33N 22°34' E 114°16'0 0.0
2014-Apr-07 12:33N 22°34' E 114°16'0 0.0
2014-Apr-07 11:33N 22°34' E 114°16'0 0.0
2014-Apr-07 10:33N 22°34' E 114°16'25 3.4
2014-Apr-07 03:08N 22°09' E 114°13'810.6
2014-Apr-07 02:24N 22°15' E 114°07'16 8.7
2014-Apr-07 00:34N 22°25' E 113°53'3 1.2
2014-Apr-06 22:19N 22°27' E 113°54'0 0.0
2014-Apr-06 18:19N 22°27' E 113°54'0 0.0
2014-Apr-06 17:19N 22°27' E 113°54'0 0.0
2014-Apr-06 16:31N 22°27' E 113°54'0 0.0
2014-Apr-06 15:31N 22°27' E 113°54'0 0.0
2014-Apr-06 14:07N 22°27' E 113°54'0 0.0
2014-Apr-06 13:16N 22°27' E 113°54'2 3.0
2014-Apr-06 12:31N 22°25' E 113°53'16 8.2
2014-Apr-06 10:33N 22°16' E 114°07'11 8.2
2014-Apr-06 09:13N 22°09' E 114°16'17317.9
2014-Apr-05 23:33N 22°22' E 117°22'1818.0
2014-Apr-05 22:33N 22°23' E 117°42'1818.3
2014-Apr-05 21:33N 22°24' E 118°01'3718.6
2014-Apr-05 19:33N 22°27' E 118°41'5918.1
2014-Apr-05 16:17N 22°32' E 119°45'1317.1
2014-Apr-05 15:33N 22°32' E 119°59'7 7.4
2014-Apr-05 14:33N 22°33' E 120°07'8 7.8
2014-Apr-05 13:33N 22°33' E 120°15'3 3.4
2014-Apr-05 12:33N 22°33' E 120°19'0 0.1
2014-Apr-05 11:30N 22°34' E 120°19'0 0.1
2014-Apr-05 10:30N 22°34' E 120°19'0 0.0
2014-Apr-05 09:30N 22°33' E 120°19'0 0.0
2014-Apr-05 08:24N 22°33' E 120°19'0 0.0
2014-Apr-05 07:30N 22°33' E 120°19'0 0.0
2014-Apr-05 06:30N 22°33' E 120°19'0 0.1
2014-Apr-05 05:30N 22°33' E 120°19'0 0.0
2014-Apr-05 04:30N 22°34' E 120°19'0 0.1
2014-Apr-05 03:30N 22°34' E 120°19'0 0.0
2014-Apr-05 02:30N 22°33' E 120°19'0 0.0
2014-Apr-05 01:30N 22°34' E 120°19'0 0.0
2014-Apr-05 00:33N 22°33' E 120°19'4 3.6
2014-Apr-04 23:33N 22°32' E 120°15'1111.2
2014-Apr-04 22:33N 22°41' E 120°07'1716.8
2014-Apr-04 21:33N 22°55' E 119°58'7619.0
2014-Apr-04 17:33N 24°11' E 120°10'33918.8
2014-Apr-03 23:33N 29°28' E 122°23'1616.3
2014-Apr-03 22:33N 29°44' E 122°20'1313.5
2014-Apr-03 21:33N 29°54' E 122°10'6 6.3
2014-Apr-03 20:33N 29°53' E 122°03'0 0.0
2014-Apr-03 19:33N 29°53' E 122°03'0 0.0
2014-Apr-03 18:33N 29°53' E 122°03'0 0.0
2014-Apr-03 17:33N 29°53' E 122°03'0 0.0
2014-Apr-03 16:33N 29°53' E 122°03'0 0.0
2014-Apr-03 15:33N 29°53' E 122°03'0 0.0
2014-Apr-03 14:33N 29°53' E 122°03'0 0.0
2014-Apr-03 13:33N 29°53' E 122°03'0 0.0
2014-Apr-03 12:33N 29°53' E 122°03'0 0.0
2014-Apr-03 11:33N 29°53' E 122°03'0 0.0
2014-Apr-03 10:33N 29°53' E 122°03'0 0.0
2014-Apr-03 09:33N 29°53' E 122°03'1 1.1
2014-Apr-03 08:34N 29°54' E 122°04'9 9.2
2014-Apr-03 07:33N 29°50' E 122°13'10 9.8
2014-Apr-03 06:33N 29°44' E 122°23'6 5.4
2014-Apr-03 05:28N 29°45' E 122°29'0 0.0
2014-Apr-03 04:16N 29°45' E 122°29'0 0.0
2014-Apr-03 03:28N 29°45' E 122°29'0 0.0
2014-Apr-03 02:28N 29°45' E 122°29'0 0.0
2014-Apr-03 01:33N 29°45' E 122°29'0 0.0
2014-Apr-03 00:33N 29°45' E 122°29'  

Dump ship's entire track history

sailing weather and tide predictions

Hatsu Envoy — VSQL9 — position and weather